Time;durP1;ratioP1;P1;durP2;ratioP2;P2;SDS_P1;SDS_P2;PMS_P1;PMS_P2;Temp;Humidity;BMP_temperature;BMP_pressure;BME280_temperature;BME280_humidity;BME280_pressure;Samples;Min_cycle;Max_cycle;Signal;HPM_P1;HPM_P2
2022/12/15 00:40:41;;;;;;;32.15;11.35;;;-2.90;99.90;;;;;;4997627;28;20057;-68
2022/12/15 00:43:10;;;;;;;30.42;10.80;;;-2.80;99.90;;;;;;4995779;28;20034;-68
2022/12/15 00:48:20;;;;;;;27.95;11.13;;;-2.90;99.90;;;;;;4997355;28;20089;-68
2022/12/15 00:50:52;;;;;;;29.98;11.77;;;-2.80;99.90;;;;;;4996616;28;20038;-68
2022/12/15 01:20:44;;;;;;;30.80;11.32;;;-2.80;99.90;;;;;;4996217;28;20041;-68
2022/12/15 01:23:10;;;;;;;23.17;10.15;;;-2.70;99.90;;;;;;4996399;28;20035;-68
2022/12/15 01:25:37;;;;;;;38.10;11.23;;;-2.80;99.90;;;;;;4995599;28;20030;-68
2022/12/15 01:28:03;;;;;;;27.65;10.55;;;-2.50;99.90;;;;;;4995999;28;20022;-69
2022/12/15 01:30:29;;;;;;;29.15;10.38;;;-2.50;99.90;;;;;;4995911;28;20077;-69
2022/12/15 01:32:54;;;;;;;28.30;10.98;;;-2.50;99.90;;;;;;4994613;28;20130;-69
2022/12/15 01:35:20;;;;;;;25.20;10.25;;;-2.50;99.90;;;;;;4995483;28;20073;-68
2022/12/15 01:37:46;;;;;;;30.38;11.57;;;-2.50;99.90;;;;;;4995856;28;20030;-68
2022/12/15 01:43:01;;;;;;;31.77;11.65;;;-2.80;99.90;;;;;;4996020;28;20053;-68
2022/12/15 01:45:26;;;;;;;30.77;11.23;;;-2.80;99.90;;;;;;4995422;28;20386;-68
2022/12/15 01:47:56;;;;;;;31.90;10.77;;;-2.60;99.90;;;;;;4994599;28;20034;-68
2022/12/15 01:50:24;;;;;;;26.63;11.45;;;-2.50;99.90;;;;;;4997154;28;20105;-68
2022/12/15 01:52:52;;;;;;;25.75;11.38;;;-2.40;99.90;;;;;;4994203;28;20121;-68
2022/12/15 01:55:19;;;;;;;31.40;11.30;;;-2.30;99.90;;;;;;4994607;28;20022;-68
2022/12/15 01:57:47;;;;;;;33.47;11.75;;;-2.30;99.90;;;;;;4996039;28;20081;-68
2022/12/15 02:00:13;;;;;;;22.73;10.23;;;-2.10;99.90;;;;;;4994121;28;20029;-69
2022/12/15 02:02:39;;;;;;;32.95;11.95;;;-2.00;99.90;;;;;;4995615;28;20401;-68
2022/12/15 02:05:06;;;;;;;26.25;11.68;;;-2.10;99.90;;;;;;4994376;28;20070;-68
2022/12/15 02:07:31;;;;;;;28.63;11.10;;;-2.00;99.90;;;;;;4994137;28;20034;-68
2022/12/15 02:10:00;;;;;;;27.52;11.23;;;-2.10;99.90;;;;;;4994019;28;20027;-68
2022/12/15 02:13:05;;;;;;;27.63;11.90;;;-2.00;99.90;;;;;;4993975;28;20033;-68
2022/12/15 02:15:43;;;;;;;24.73;10.63;;;-2.00;99.90;;;;;;4986505;28;20410;-68
2022/12/15 02:18:32;;;;;;;29.50;11.40;;;-1.90;99.90;;;;;;4995263;28;20462;-68
2022/12/15 02:21:14;;;;;;;28.92;11.80;;;-2.10;99.90;;;;;;4993220;28;20049;-68
2022/12/15 02:23:45;;;;;;;;;;;-2.10;99.90;;;;;;4994066;28;20022;-68
2022/12/15 02:26:30;;;;;;;25.93;10.20;;;-2.10;99.90;;;;;;4995065;28;19905;-68
2022/12/15 02:29:19;;;;;;;26.73;10.90;;;-2.10;99.90;;;;;;4995025;28;20038;-68
2022/12/15 02:31:53;;;;;;;31.80;12.32;;;-2.10;99.90;;;;;;4994800;28;20049;-68
2022/12/15 02:34:28;;;;;;;26.67;10.60;;;-2.00;99.90;;;;;;4993634;28;20512;-68
2022/12/15 02:37:06;;;;;;;31.85;11.82;;;-1.70;99.90;;;;;;4994825;28;20029;-68
2022/12/15 02:39:32;;;;;;;32.17;10.95;;;-1.60;99.90;;;;;;4993526;28;20026;-68
2022/12/15 02:41:58;;;;;;;31.95;10.70;;;-1.80;99.90;;;;;;4993377;28;20027;-68
2022/12/15 02:44:47;;;;;;;37.70;12.45;;;-1.80;99.90;;;;;;4993653;28;20031;-68
2022/12/15 02:47:12;;;;;;;28.45;10.82;;;-1.60;99.90;;;;;;4994065;28;20025;-68
2022/12/15 02:49:56;;;;;;;25.15;11.25;;;-1.60;99.90;;;;;;4993942;28;20026;-68
2022/12/15 02:52:24;;;;;;;28.35;11.77;;;-1.70;99.90;;;;;;4994332;28;20042;-68
2022/12/15 02:55:08;;;;;;;32.65;11.35;;;-2.00;99.90;;;;;;4994941;28;20520;-68
2022/12/15 02:57:49;;;;;;;31.02;12.27;;;-2.00;99.90;;;;;;4993226;28;20018;-68
2022/12/15 03:00:16;;;;;;;24.42;10.48;;;-2.00;99.90;;;;;;4993042;28;20030;-68
2022/12/15 03:02:47;;;;;;;25.95;10.48;;;-1.70;99.90;;;;;;4993568;28;20076;-68
2022/12/15 03:05:14;;;;;;;30.50;11.80;;;-1.50;99.90;;;;;;4994227;28;20478;-68
2022/12/15 03:07:41;;;;;;;25.15;10.70;;;-1.40;99.90;;;;;;4993323;28;20030;-68
2022/12/15 03:10:11;;;;;;;34.47;11.85;;;-1.40;99.90;;;;;;4994159;28;20023;-68
2022/12/15 03:12:36;;;;;;;29.42;11.70;;;-1.50;99.90;;;;;;4993128;28;20030;-68
2022/12/15 03:15:02;;;;;;;27.88;11.25;;;-1.50;99.90;;;;;;4994259;28;20084;-68
2022/12/15 03:17:28;;;;;;;30.35;10.48;;;-1.70;99.90;;;;;;4992881;28;20018;-68
2022/12/15 03:19:53;;;;;;;26.75;10.38;;;-1.60;99.90;;;;;;4994203;28;20090;-68
2022/12/15 03:22:19;;;;;;;29.85;11.73;;;-1.60;99.90;;;;;;4992824;28;20053;-68
2022/12/15 03:24:44;;;;;;;28.98;10.90;;;-1.60;99.90;;;;;;4993173;28;20034;-68
2022/12/15 03:27:10;;;;;;;30.38;11.85;;;-1.50;99.90;;;;;;4994223;28;20022;-68
2022/12/15 03:29:36;;;;;;;29.05;10.88;;;-1.60;99.90;;;;;;4994094;28;20034;-68
2022/12/15 03:32:01;;;;;;;24.45;10.15;;;-1.50;99.90;;;;;;4993758;28;20038;-68
2022/12/15 03:34:27;;;;;;;30.38;11.48;;;-1.40;99.90;;;;;;4992666;28;20066;-68
2022/12/15 03:36:52;;;;;;;33.13;11.45;;;-1.30;99.90;;;;;;4992689;28;20026;-68
2022/12/15 03:39:18;;;;;;;30.67;12.02;;;-1.10;99.90;;;;;;4992538;28;20504;-68
2022/12/15 03:41:43;;;;;;;26.08;11.65;;;-1.00;99.90;;;;;;4994015;28;20030;-68
2022/12/15 03:44:09;;;;;;;32.35;11.85;;;-1.10;99.90;;;;;;4992616;28;20092;-68
2022/12/15 03:46:34;;;;;;;30.38;10.93;;;-1.10;99.90;;;;;;4992562;28;20049;-68
2022/12/15 03:49:00;;;;;;;28.15;11.65;;;-1.10;99.90;;;;;;4992729;28;20069;-69
2022/12/15 03:51:25;;;;;;;22.38;9.60;;;-1.00;99.90;;;;;;4992469;28;20050;-68
2022/12/15 03:53:52;;;;;;;30.23;11.90;;;-0.80;99.90;;;;;;4992514;28;20085;-68
2022/12/15 03:56:18;;;;;;;29.52;12.15;;;-0.60;99.90;;;;;;4992850;28;20018;-68
2022/12/15 03:58:43;;;;;;;29.17;12.05;;;-0.60;99.90;;;;;;4994417;28;20030;-68
2022/12/15 04:01:11;;;;;;;29.15;11.60;;;-0.60;99.90;;;;;;4997746;28;20085;-68
2022/12/15 04:03:37;;;;;;;27.65;10.65;;;-0.70;99.90;;;;;;4997601;28;20085;-68
2022/12/15 04:06:03;;;;;;;30.10;11.02;;;-0.60;99.90;;;;;;4996230;28;20038;-68
2022/12/15 04:08:29;;;;;;;33.25;11.68;;;-0.50;99.90;;;;;;4996693;28;20033;-68
2022/12/15 04:10:54;;;;;;;27.13;11.40;;;-0.60;99.90;;;;;;4996118;28;20026;-68
2022/12/15 04:13:20;;;;;;;33.55;12.40;;;-0.70;99.90;;;;;;4996471;28;20033;-68
2022/12/15 04:15:45;;;;;;;28.27;12.07;;;-0.70;99.90;;;;;;4997361;28;20022;-68
2022/12/15 04:18:11;;;;;;;27.23;11.95;;;-0.60;99.90;;;;;;4997301;28;20065;-69
2022/12/15 04:20:37;;;;;;;25.40;11.00;;;-0.70;99.90;;;;;;4996524;28;20092;-69
2022/12/15 04:23:06;;;;;;;29.23;12.82;;;-0.80;99.90;;;;;;4997269;28;20084;-69
2022/12/15 05:31:47;;;;;;;26.25;11.23;;;-0.60;99.90;;;;;;4996054;28;20026;-69
2022/12/15 05:34:13;;;;;;;33.15;12.50;;;-0.70;99.90;;;;;;4995087;28;20026;-69
2022/12/15 05:36:39;;;;;;;31.95;12.43;;;-0.70;99.90;;;;;;4994674;28;20030;-68
2022/12/15 05:39:04;;;;;;;33.88;12.32;;;-0.80;99.90;;;;;;4995072;28;20034;-68
2022/12/15 05:41:30;;;;;;;30.77;11.40;;;-0.80;99.90;;;;;;4994562;28;20018;-68
2022/12/15 05:43:55;;;;;;;26.95;10.90;;;-0.80;99.90;;;;;;4994918;28;20030;-68
2022/12/15 05:46:21;;;;;;;30.17;12.07;;;-0.80;99.90;;;;;;4994783;28;20018;-68
2022/12/15 05:48:46;;;;;;;27.08;11.52;;;-0.80;99.90;;;;;;4996034;28;20030;-68
2022/12/15 05:51:13;;;;;;;28.08;11.38;;;-0.90;99.90;;;;;;4994360;28;20026;-68
2022/12/15 05:53:39;;;;;;;27.35;11.40;;;-0.80;99.90;;;;;;4994134;28;20060;-69
2022/12/15 05:56:07;;;;;;;30.23;11.80;;;-0.60;99.90;;;;;;4995766;28;20073;-69
2022/12/15 05:58:33;;;;;;;30.42;11.70;;;-0.40;99.90;;;;;;4994443;28;20022;-69
2022/12/15 06:01:10;;;;;;;28.23;10.88;;;-0.30;99.90;;;;;;4995582;28;20546;-69
2022/12/15 06:03:36;;;;;;;26.15;11.52;;;-0.40;99.90;;;;;;4994399;28;20048;-69
2022/12/15 06:06:03;;;;;;;20.27;10.27;;;-0.50;99.90;;;;;;4994872;28;20102;-69
2022/12/15 06:08:31;;;;;;;28.55;11.63;;;-0.50;99.90;;;;;;4994332;28;20101;-69
2022/12/15 06:10:57;;;;;;;30.40;13.15;;;-0.50;99.90;;;;;;4996072;28;20093;-69
2022/12/15 06:13:23;;;;;;;28.20;12.02;;;-0.40;99.90;;;;;;4995319;28;20114;-69
2022/12/15 06:16:00;;;;;;;29.40;12.95;;;-0.50;99.90;;;;;;4995497;28;20026;-69
2022/12/15 06:18:30;;;;;;;31.80;12.68;;;-0.50;99.90;;;;;;4993848;28;20126;-69
2022/12/15 06:20:57;;;;;;;22.08;10.50;;;-0.50;99.90;;;;;;4993431;28;20037;-69
2022/12/15 06:23:23;;;;;;;27.10;10.88;;;-0.50;99.90;;;;;;4994896;28;20037;-69
2022/12/15 06:25:48;;;;;;;24.80;10.70;;;-0.50;99.90;;;;;;4994982;28;20030;-69
2022/12/15 06:28:15;;;;;;;29.98;12.23;;;-0.40;99.90;;;;;;4995155;28;20038;-68
2022/12/15 06:30:41;;;;;;;33.72;13.85;;;-0.40;99.90;;;;;;4995219;28;20053;-68
2022/12/15 06:33:06;;;;;;;26.70;13.10;;;-0.40;99.90;;;;;;4996617;28;20026;-69
2022/12/15 06:35:36;;;;;;;31.17;12.45;;;-0.40;99.90;;;;;;4998288;28;20041;-69
2022/12/15 06:38:03;;;;;;;25.50;11.75;;;-0.30;99.90;;;;;;4997197;28;20026;-68
2022/12/15 06:40:29;;;;;;;30.95;12.02;;;-0.30;99.90;;;;;;4996570;28;20053;-68
2022/12/15 06:42:54;;;;;;;29.15;11.80;;;-0.50;99.90;;;;;;4997851;28;20030;-68
2022/12/15 06:45:20;;;;;;;35.33;12.48;;;-0.50;99.90;;;;;;4996646;28;20073;-68
2022/12/15 06:47:47;;;;;;;35.60;12.30;;;-0.50;99.90;;;;;;4996796;28;20030;-68
2022/12/15 06:50:13;;;;;;;26.90;12.07;;;-0.50;99.90;;;;;;4995036;28;20026;-67
2022/12/15 06:52:39;;;;;;;26.33;12.00;;;-0.50;99.90;;;;;;4995310;28;20026;-68
2022/12/15 06:55:05;;;;;;;25.73;11.93;;;-0.50;99.90;;;;;;4995408;28;20022;-68
2022/12/15 06:57:30;;;;;;;29.65;12.82;;;-0.40;99.90;;;;;;4993758;28;20036;-68
2022/12/15 06:59:56;;;;;;;35.10;13.45;;;-0.30;99.90;;;;;;4993267;28;20018;-68
2022/12/15 07:02:21;;;;;;;27.65;10.93;;;-0.30;99.90;;;;;;4994638;28;20489;-68
2022/12/15 07:04:47;;;;;;;28.70;12.60;;;-0.20;99.90;;;;;;4993301;28;20026;-67
2022/12/15 07:07:12;;;;;;;29.00;11.85;;;-0.30;99.90;;;;;;4993117;28;20048;-68
2022/12/15 07:09:38;;;;;;;30.23;13.18;;;-0.40;99.90;;;;;;4993002;28;20030;-67
2022/12/15 07:12:04;;;;;;;31.52;11.80;;;-0.40;99.90;;;;;;4992740;28;20097;-67
2022/12/15 07:14:29;;;;;;;31.20;12.45;;;-0.40;99.90;;;;;;4993816;28;20030;-67
2022/12/15 07:16:55;;;;;;;28.98;11.85;;;-0.60;99.90;;;;;;4992982;28;20052;-67
2022/12/15 07:19:20;;;;;;;37.47;13.95;;;-0.70;99.90;;;;;;4992859;28;20019;-67
2022/12/15 07:21:46;;;;;;;29.77;11.68;;;-0.60;99.90;;;;;;4992695;28;20049;-67
2022/12/15 07:24:12;;;;;;;32.50;13.00;;;-0.50;99.90;;;;;;4994203;28;20018;-67
2022/12/15 07:26:38;;;;;;;31.23;12.93;;;-0.60;99.90;;;;;;4992905;28;20022;-67
2022/12/15 07:29:04;;;;;;;33.97;14.55;;;-0.60;99.90;;;;;;4994058;28;20026;-67
2022/12/15 07:31:30;;;;;;;32.65;12.43;;;-0.80;99.90;;;;;;4993126;28;20027;-67
2022/12/15 07:33:57;;;;;;;30.35;13.43;;;-0.80;99.90;;;;;;4992420;28;20030;-67
2022/12/15 07:36:23;;;;;;;33.45;12.32;;;-1.00;99.90;;;;;;4993927;28;20022;-67
2022/12/15 07:38:48;;;;;;;31.02;13.10;;;-1.20;99.90;;;;;;4993314;28;20113;-68
2022/12/15 07:41:14;;;;;;;37.55;13.23;;;-1.30;99.90;;;;;;4992689;28;20032;-68
2022/12/15 07:43:40;;;;;;;32.42;12.75;;;-1.50;99.90;;;;;;4993055;28;20482;-68
2022/12/15 07:46:06;;;;;;;33.90;12.38;;;-1.30;99.90;;;;;;4992560;28;20085;-67
2022/12/15 07:48:32;;;;;;;28.75;12.05;;;-1.30;99.90;;;;;;4992524;28;20104;-67
2022/12/15 07:50:58;;;;;;;29.45;12.35;;;-1.00;99.90;;;;;;4993818;28;20031;-67
2022/12/15 07:53:27;;;;;;;32.70;12.40;;;-0.80;99.90;;;;;;4992462;28;20026;-67
2022/12/15 07:55:54;;;;;;;27.42;11.82;;;-0.70;99.90;;;;;;4992611;28;20118;-67
2022/12/15 07:58:19;;;;;;;31.35;14.02;;;-1.20;99.90;;;;;;4992892;28;20027;-68
2022/12/15 08:00:45;;;;;;;33.47;13.55;;;-1.20;99.90;;;;;;4993929;28;20073;-67
2022/12/15 08:03:10;;;;;;;42.55;15.77;;;-1.20;99.90;;;;;;4994027;28;20029;-67
2022/12/15 08:05:36;;;;;;;33.38;13.75;;;-1.40;99.90;;;;;;4992818;28;20505;-67
2022/12/15 08:08:01;;;;;;;35.95;14.57;;;-1.50;99.90;;;;;;4992466;28;20045;-68
2022/12/15 08:10:27;;;;;;;38.40;14.10;;;-1.50;99.90;;;;;;4992315;28;20038;-68
2022/12/15 08:12:54;;;;;;;29.27;12.85;;;-1.60;99.90;;;;;;4992708;28;20034;-67
2022/12/15 08:15:20;;;;;;;36.13;13.52;;;-1.70;99.90;;;;;;4993946;28;20073;-67
2022/12/15 08:17:45;;;;;;;29.90;11.77;;;-1.70;99.90;;;;;;4992694;28;20030;-67
2022/12/15 08:20:11;;;;;;;29.50;11.05;;;-1.80;99.90;;;;;;4992485;28;20033;-68
2022/12/15 08:22:36;;;;;;;34.60;13.48;;;-1.70;99.90;;;;;;4992693;28;20037;-68
2022/12/15 08:25:02;;;;;;;30.27;12.60;;;-1.70;99.90;;;;;;4992587;28;20031;-68
2022/12/15 08:27:28;;;;;;;33.13;12.30;;;-1.80;99.90;;;;;;4992536;28;20034;-69
2022/12/15 08:29:53;;;;;;;41.33;14.50;;;-1.80;99.90;;;;;;4992156;28;20029;-69
2022/12/15 08:32:19;;;;;;;37.40;14.02;;;-1.80;99.90;;;;;;4993260;28;20037;-69
2022/12/15 08:34:46;;;;;;;31.85;11.95;;;-1.80;99.90;;;;;;4993543;28;20022;-69
2022/12/15 08:37:12;;;;;;;33.88;12.63;;;-1.90;99.90;;;;;;4992406;28;20105;-68
2022/12/15 08:39:38;;;;;;;29.20;12.18;;;-1.90;99.90;;;;;;4993285;28;20029;-67
2022/12/15 08:42:04;;;;;;;32.75;13.43;;;-1.80;99.90;;;;;;4992135;28;20026;-67
2022/12/15 08:44:29;;;;;;;33.47;12.40;;;-1.80;99.90;;;;;;4992761;28;20375;-68
2022/12/15 08:46:55;;;;;;;36.72;12.63;;;-1.80;99.90;;;;;;4995632;28;20081;-68
2022/12/15 08:49:20;;;;;;;38.95;14.45;;;-1.80;99.90;;;;;;4995869;28;20023;-68
2022/12/15 08:51:46;;;;;;;36.95;13.02;;;-1.50;99.90;;;;;;4995560;28;20033;-68
2022/12/15 08:54:11;;;;;;;39.17;13.63;;;-1.50;99.90;;;;;;4996238;28;20405;-68
2022/12/15 08:56:37;;;;;;;33.67;12.75;;;-1.70;99.90;;;;;;4995385;28;20113;-68
2022/12/15 08:59:02;;;;;;;35.08;12.63;;;-1.90;99.90;;;;;;4995538;28;20026;-68
2022/12/15 09:01:30;;;;;;;40.75;12.93;;;-2.00;99.90;;;;;;4995734;28;20053;-68
2022/12/15 09:03:57;;;;;;;30.95;12.82;;;-2.00;99.90;;;;;;4995294;28;20033;-68
2022/12/15 09:06:32;;;;;;;40.83;12.88;;;-2.00;99.90;;;;;;4995205;28;20410;-68
2022/12/15 09:09:00;;;;;;;33.13;12.48;;;-1.80;99.90;;;;;;4996180;28;20023;-67
2022/12/15 09:11:27;;;;;;;27.48;12.00;;;-1.70;99.90;;;;;;4996336;28;20022;-67
2022/12/15 09:13:53;;;;;;;35.00;12.48;;;-1.30;99.90;;;;;;4995041;28;20034;-67
2022/12/15 09:16:20;;;;;;;29.65;11.40;;;-1.20;99.90;;;;;;4996265;28;20387;-67
2022/12/15 09:18:51;;;;;;;34.97;12.70;;;-1.00;99.90;;;;;;4995043;28;20053;-67
2022/12/15 09:21:21;;;;;;;26.40;10.93;;;-0.90;99.90;;;;;;4994935;28;20026;-67
2022/12/15 09:23:51;;;;;;;32.47;12.05;;;-0.90;99.90;;;;;;4995000;28;20062;-67
2022/12/15 09:26:18;;;;;;;30.35;12.23;;;-0.80;99.90;;;;;;4996424;28;20088;-67
2022/12/15 09:28:43;;;;;;;32.85;12.40;;;-0.80;99.90;;;;;;4995085;28;20026;-67
2022/12/15 09:31:10;;;;;;;27.38;11.32;;;-0.70;99.90;;;;;;4996250;28;20031;-67
2022/12/15 09:33:36;;;;;;;35.50;12.98;;;-0.80;99.90;;;;;;4994775;28;20027;-67
2022/12/15 09:36:03;;;;;;;30.23;11.95;;;-0.70;99.90;;;;;;4995970;28;20486;-67
2022/12/15 09:38:29;;;;;;;33.55;12.25;;;-0.70;99.90;;;;;;4994718;28;20022;-67
2022/12/15 09:40:55;;;;;;;38.35;12.90;;;-0.90;99.90;;;;;;4994816;28;20029;-67
2022/12/15 09:43:25;;;;;;;30.50;11.73;;;-1.00;99.90;;;;;;4995352;28;20125;-67
2022/12/15 09:46:01;;;;;;;31.27;11.18;;;-0.90;99.90;;;;;;4995833;28;20031;-67
2022/12/15 09:48:40;;;;;;;33.22;12.15;;;-0.90;99.90;;;;;;4994584;28;20126;-67
2022/12/15 09:51:13;;;;;;;27.00;10.35;;;-0.90;99.90;;;;;;4994888;28;20022;-67
2022/12/15 09:53:38;;;;;;;29.15;10.85;;;-1.50;99.90;;;;;;4995664;28;20030;-66
2022/12/15 09:56:12;;;;;;;28.60;11.52;;;-1.60;99.90;;;;;;4994226;28;20053;-66
2022/12/15 09:59:03;;;;;;;30.85;11.90;;;-1.60;99.90;;;;;;4994317;28;20026;-66
2022/12/15 10:01:44;;;;;;;24.95;10.30;;;-1.60;99.90;;;;;;4983845;28;20041;-66
2022/12/15 10:04:28;;;;;;;32.65;11.48;;;-1.70;99.90;;;;;;4995425;28;20018;-66
2022/12/15 10:07:03;;;;;;;28.45;11.07;;;-1.80;99.90;;;;;;4994102;28;20026;-67
2022/12/15 10:09:29;;;;;;;27.17;10.07;;;-1.60;99.90;;;;;;4995346;28;20018;-67
2022/12/15 10:12:22;;;;;;;33.45;13.05;;;-1.60;99.90;;;;;;4994736;28;20054;-67
2022/12/15 10:14:59;;;;;;;28.83;11.95;;;-1.80;99.90;;;;;;4993952;28;20027;-67
2022/12/15 10:17:45;;;;;;;27.20;11.13;;;-1.90;99.90;;;;;;4993936;28;20018;-67
2022/12/15 10:20:19;;;;;;;34.25;11.70;;;-1.60;99.90;;;;;;4993749;28;20398;-67
2022/12/15 10:22:45;;;;;;;27.75;10.77;;;-1.60;99.90;;;;;;4995462;28;20031;-67
2022/12/15 10:25:20;;;;;;;29.38;12.35;;;-1.50;99.90;;;;;;4995352;28;20100;-68
2022/12/15 10:28:14;;;;;;;32.05;12.15;;;-1.40;99.90;;;;;;4994128;28;20078;-68
2022/12/15 10:30:49;;;;;;;30.45;11.93;;;-1.50;99.90;;;;;;4994881;28;20075;-68
2022/12/15 10:33:27;;;;;;;29.60;12.35;;;-1.80;99.90;;;;;;4994604;28;20035;-68
2022/12/15 10:35:54;;;;;;;37.10;12.93;;;-1.80;99.90;;;;;;4993569;28;20030;-67
2022/12/15 10:38:41;;;;;;;33.85;13.05;;;-1.70;99.90;;;;;;4993574;28;20022;-68
2022/12/15 10:41:10;;;;;;;31.85;11.40;;;-1.80;99.90;;;;;;4993477;28;20080;-67
2022/12/15 10:43:39;;;;;;;32.85;12.10;;;-1.80;99.90;;;;;;4993441;28;20394;-67
2022/12/15 10:46:20;;;;;;;32.25;12.02;;;-1.90;99.90;;;;;;4994827;28;20386;-68
2022/12/15 10:48:51;;;;;;;28.17;10.27;;;-1.60;99.90;;;;;;4994241;28;20022;-68
2022/12/15 10:51:27;;;;;;;26.38;11.10;;;-1.50;99.90;;;;;;4994529;28;20272;-68
2022/12/15 10:54:05;;;;;;;32.25;12.27;;;-1.50;99.90;;;;;;4993213;28;20456;-68
2022/12/15 10:56:32;;;;;;;26.17;10.77;;;-1.40;99.90;;;;;;4994078;28;20023;-68
2022/12/15 10:59:00;;;;;;;30.98;12.13;;;-1.40;99.90;;;;;;4993183;28;20018;-68
2022/12/15 11:01:29;;;;;;;29.85;11.55;;;-1.40;99.90;;;;;;4994566;28;20541;-68
2022/12/15 11:03:55;;;;;;;29.02;9.98;;;-1.60;99.90;;;;;;4994301;28;20037;-68
2022/12/15 11:06:35;;;;;;;29.42;11.70;;;-1.50;99.90;;;;;;4994361;28;20049;-68
2022/12/15 11:09:30;;;;;;;35.90;12.68;;;-1.70;99.90;;;;;;4994115;28;20378;-68
2022/12/15 11:14:47;;;;;;;31.95;10.50;;;-1.50;99.90;;;;;;4994438;28;20028;-68
2022/12/15 11:17:21;;;;;;;33.88;12.45;;;-1.50;99.90;;;;;;4993159;28;20014;-68
2022/12/15 11:19:52;;;;;;;32.05;11.32;;;-1.40;99.90;;;;;;4994375;28;20062;-67
2022/12/15 11:22:23;;;;;;;35.45;11.93;;;-1.50;99.90;;;;;;4992839;28;20553;-67
2022/12/15 11:24:53;;;;;;;32.58;12.85;;;-1.50;99.90;;;;;;4993939;28;20084;-67
2022/12/15 11:27:25;;;;;;;26.85;10.98;;;-1.10;99.90;;;;;;4993602;28;20026;-68
2022/12/15 11:30:11;;;;;;;26.70;10.70;;;-0.90;99.90;;;;;;4992835;28;20094;-68
2022/12/15 11:32:40;;;;;;;29.17;11.52;;;-0.70;99.90;;;;;;4993907;28;20037;-68
2022/12/15 11:35:14;;;;;;;33.05;13.38;;;-0.60;99.90;;;;;;4994217;28;20069;-68
2022/12/15 11:37:42;;;;;;;39.03;11.32;;;-0.70;99.90;;;;;;4992699;28;20022;-68
2022/12/15 11:40:32;;;;;;;32.72;12.27;;;-0.60;99.90;;;;;;4993791;28;20057;-68
2022/12/15 11:43:45;;;;;;;39.08;11.88;;;-0.50;99.90;;;;;;4993302;28;20022;-68
2022/12/15 11:46:26;;;;;;;32.35;11.13;;;-0.70;99.90;;;;;;4992765;28;20117;-68
2022/12/15 11:49:39;;;;;;;27.88;10.70;;;-0.50;99.90;;;;;;4993342;28;20052;-68
2022/12/15 11:52:10;;;;;;;32.30;12.07;;;-0.80;99.90;;;;;;4994289;28;20035;-67
2022/12/15 11:55:07;;;;;;;31.27;11.50;;;-0.90;99.90;;;;;;4994081;28;20026;-68
2022/12/15 11:57:54;;;;;;;28.48;11.38;;;-1.20;99.90;;;;;;4992627;28;20031;-68
2022/12/15 12:00:22;;;;;;;33.13;12.25;;;-1.20;99.90;;;;;;4992716;28;20029;-68
2022/12/15 12:03:10;;;;;;;32.10;11.38;;;-1.10;99.90;;;;;;4992728;28;20034;-68
2022/12/15 12:06:00;;;;;;;32.92;11.02;;;-1.20;99.90;;;;;;4992278;28;20173;-68
2022/12/15 12:08:37;;;;;;;28.60;10.48;;;-1.20;99.90;;;;;;4992831;28;20429;-68
2022/12/15 12:11:40;;;;;;;32.10;11.55;;;-1.20;99.90;;;;;;4992385;28;20030;-68
2022/12/15 12:14:25;;;;;;;29.70;12.15;;;-1.40;99.90;;;;;;4993567;28;20058;-68
2022/12/15 12:17:20;;;;;;;28.23;11.95;;;-1.40;99.90;;;;;;4993043;28;20029;-68
2022/12/15 12:19:57;;;;;;;34.47;12.70;;;-1.10;99.90;;;;;;4981633;28;20034;-68
2022/12/15 12:22:36;;;;;;;36.25;12.90;;;-0.70;99.90;;;;;;4998004;28;20045;-68
2022/12/15 12:25:14;;;;;;;32.13;12.25;;;-0.50;99.90;;;;;;4996119;28;20030;-68
2022/12/15 12:27:53;;;;;;;36.50;13.10;;;-0.40;99.90;;;;;;4995991;28;20072;-68
2022/12/15 12:30:22;;;;;;;33.50;12.68;;;-0.20;99.90;;;;;;4996145;28;20504;-68
2022/12/15 12:32:47;;;;;;;37.30;11.35;;;-0.20;99.90;;;;;;4997018;28;20030;-68
2022/12/15 12:35:38;;;;;;;32.25;12.75;;;-0.10;99.90;;;;;;4997112;28;20042;-68
2022/12/15 12:38:06;;;;;;;32.78;11.20;;;-0.20;99.90;;;;;;4996990;28;20038;-68
2022/12/15 12:40:45;;;;;;;29.55;11.30;;;-0.40;99.90;;;;;;4996449;28;20032;-68
2022/12/15 12:43:21;;;;;;;31.63;12.18;;;-0.40;99.90;;;;;;4996582;28;20033;-68
2022/12/15 12:46:01;;;;;;;31.02;11.52;;;-0.30;99.90;;;;;;4995678;28;20541;-68
2022/12/15 12:48:45;;;;;;;31.08;12.02;;;-0.50;99.90;;;;;;4995658;28;20062;-68
2022/12/15 12:51:19;;;;;;;23.15;10.45;;;-0.50;99.90;;;;;;4995824;28;20042;-68
2022/12/15 12:53:44;;;;;;;30.27;10.85;;;-0.50;99.90;;;;;;4996749;28;20023;-68
2022/12/15 12:56:37;;;;;;;31.63;12.07;;;-0.30;99.90;;;;;;4995750;28;20026;-68
2022/12/15 12:59:27;;;;;;;31.40;11.05;;;-0.30;99.90;;;;;;4995453;28;20029;-68
2022/12/15 13:01:54;;;;;;;29.73;10.35;;;-0.30;99.90;;;;;;4984930;28;20089;-68
2022/12/15 13:04:29;;;;;;;33.38;11.60;;;-0.10;99.90;;;;;;4996606;28;20029;-68
2022/12/15 13:06:58;;;;;;;27.63;12.20;;;-0.10;99.90;;;;;;4995637;28;20025;-68
2022/12/15 13:09:40;;;;;;;28.23;11.15;;;-0.10;99.90;;;;;;4995557;28;20125;-68
2022/12/15 13:12:44;;;;;;;32.55;12.02;;;-0.30;99.90;;;;;;4995203;28;20030;-68
2022/12/15 13:15:38;;;;;;;33.90;11.57;;;-0.20;99.90;;;;;;4995276;28;20117;-68
2022/12/15 13:18:16;;;;;;;23.80;10.15;;;-0.10;99.90;;;;;;4995263;28;20036;-68
2022/12/15 13:20:43;;;;;;;30.85;12.02;;;-0.10;99.90;;;;;;4995369;28;20041;-67
2022/12/15 13:23:18;;;;;;;29.77;11.32;;;-0.10;99.90;;;;;;4995226;28;20053;-67
2022/12/15 13:25:45;;;;;;;31.98;12.50;;;-0.20;99.90;;;;;;4996219;28;20105;-67
2022/12/15 13:28:26;;;;;;;27.88;10.70;;;-0.20;99.90;;;;;;4995010;28;20134;-67
2022/12/15 13:31:10;;;;;;;27.48;11.00;;;-0.10;99.90;;;;;;4995837;28;20031;-67
2022/12/15 13:33:49;;;;;;;28.77;11.48;;;0.00;99.90;;;;;;4995631;28;20022;-67
2022/12/15 13:36:36;;;;;;;35.25;12.57;;;-0.10;99.90;;;;;;4994725;28;20022;-67
2022/12/15 13:39:11;;;;;;;32.83;11.68;;;0.00;99.90;;;;;;4994783;28;20026;-67
2022/12/15 13:41:43;;;;;;;33.95;12.82;;;-0.10;99.90;;;;;;4994520;28;20061;-67
2022/12/15 13:44:22;;;;;;;29.08;12.02;;;-0.10;99.90;;;;;;4996397;28;20026;-67
2022/12/15 13:46:51;;;;;;;32.60;10.85;;;-0.20;99.90;;;;;;4995791;28;20022;-67
2022/12/15 13:49:33;;;;;;;32.38;12.07;;;-0.10;99.90;;;;;;4994575;28;20098;-67
2022/12/15 13:52:00;;;;;;;;;;;-0.10;99.90;;;;;;4996068;28;20026;-67
2022/12/15 13:54:34;;;;;;;27.42;10.68;;;0.00;99.90;;;;;;4994730;28;19906;-67
2022/12/15 13:57:08;;;;;;;33.63;11.43;;;0.00;99.90;;;;;;4994378;28;20026;-67
2022/12/15 13:59:43;;;;;;;34.85;11.55;;;-0.10;99.90;;;;;;4994424;28;20026;-68
2022/12/15 14:02:30;;;;;;;37.35;12.57;;;-0.10;99.90;;;;;;4994351;28;20092;-68
2022/12/15 14:05:21;;;;;;;34.90;13.07;;;-0.20;99.90;;;;;;4994506;28;20018;-68
2022/12/15 14:07:53;;;;;;;36.93;12.77;;;-0.10;99.90;;;;;;4994311;28;20033;-67
2022/12/15 14:10:40;;;;;;;35.08;12.80;;;-0.20;99.90;;;;;;4994479;28;20029;-67
2022/12/15 14:13:41;;;;;;;39.25;13.80;;;-0.20;99.90;;;;;;4995241;28;20022;-67
2022/12/15 14:16:16;;;;;;;36.50;12.23;;;-0.20;99.90;;;;;;4990366;28;20038;-67
2022/12/15 14:18:43;;;;;;;41.38;12.48;;;-0.40;99.90;;;;;;4994250;28;20038;-67
2022/12/15 14:21:23;;;;;;;36.75;12.23;;;-0.60;99.90;;;;;;4994435;28;20081;-67
2022/12/15 14:23:49;;;;;;;30.63;11.88;;;-0.60;99.90;;;;;;4995231;28;20026;-67
2022/12/15 14:26:15;;;;;;;30.35;9.63;;;-0.80;99.90;;;;;;4994149;28;20048;-68
2022/12/15 14:28:47;;;;;;;32.00;10.85;;;-0.60;99.90;;;;;;4994000;28;20029;-68
2022/12/15 14:31:21;;;;;;;36.47;12.98;;;-0.70;99.90;;;;;;4993890;28;20026;-68
2022/12/15 14:33:52;;;;;;;38.53;12.48;;;-1.00;99.90;;;;;;4995069;28;20058;-68
2022/12/15 14:36:19;;;;;;;40.77;11.60;;;-1.00;99.90;;;;;;4994954;28;20027;-67
2022/12/15 14:38:58;;;;;;;32.00;11.68;;;-1.10;99.90;;;;;;4993961;28;20108;-67
2022/12/15 14:41:27;;;;;;;28.80;10.77;;;-1.20;99.90;;;;;;4993603;28;20019;-67
2022/12/15 14:44:03;;;;;;;36.30;11.82;;;-1.30;99.90;;;;;;4992842;28;20023;-67
2022/12/15 14:46:29;;;;;;;31.75;11.00;;;-1.20;99.90;;;;;;4995446;28;20058;-67
2022/12/15 14:49:00;;;;;;;35.25;11.40;;;-1.00;99.90;;;;;;4994771;28;20062;-67
2022/12/15 14:51:27;;;;;;;30.88;11.40;;;-0.90;99.90;;;;;;4994783;28;20022;-68
2022/12/15 14:53:53;;;;;;;35.90;11.65;;;-1.10;99.90;;;;;;4993745;28;20026;-67
2022/12/15 14:56:19;;;;;;;29.85;10.63;;;-1.10;99.90;;;;;;4995247;28;20026;-67
2022/12/15 14:59:06;;;;;;;31.25;10.25;;;-1.00;99.90;;;;;;4993808;28;20019;-68
2022/12/15 15:01:40;;;;;;;36.72;11.43;;;-1.00;99.90;;;;;;4983677;28;20379;-68
2022/12/15 15:04:25;;;;;;;36.95;13.00;;;-0.90;99.90;;;;;;4993172;28;20061;-68
2022/12/15 15:06:55;;;;;;;34.08;11.95;;;-0.90;99.90;;;;;;4995386;28;20022;-68
2022/12/15 15:09:27;;;;;;;33.28;11.55;;;-1.00;99.90;;;;;;4993549;28;20030;-68
2022/12/15 15:12:03;;;;;;;39.38;12.85;;;-1.10;99.90;;;;;;4994989;28;20026;-68